Time;durP1;ratioP1;P1;durP2;ratioP2;P2;SDS_P1;SDS_P2;PMS_P1;PMS_P2;Temp;Humidity;BMP_temperature;BMP_pressure;BME280_temperature;BME280_humidity;BME280_pressure;Samples;Min_cycle;Max_cycle;Signal;HPM_P1;HPM_P2
2022/01/08 00:02:03;;;;;;;30.60;21.52;;;;;;;10.67;68.93;102121.91;4953605;28;103949;-48
2022/01/08 00:04:29;;;;;;;31.30;21.38;;;;;;;10.67;68.83;102118.38;4938759;28;102289;-46
2022/01/08 00:06:56;;;;;;;33.65;22.15;;;;;;;10.67;69.10;102113.75;4939670;28;102463;-48
2022/01/08 00:09:22;;;;;;;31.67;21.45;;;;;;;10.67;68.62;102119.19;4938283;28;102369;-48
2022/01/08 00:11:50;;;;;;;30.08;21.40;;;;;;;10.66;68.81;102117.53;4934041;28;104312;-49
2022/01/08 00:14:18;;;;;;;31.25;20.67;;;;;;;10.66;68.59;102109.38;4939988;28;102027;-48
2022/01/08 00:16:46;;;;;;;33.35;22.60;;;;;;;10.65;68.75;102107.72;4937623;28;102069;-49
2022/01/08 00:19:12;;;;;;;28.38;20.08;;;;;;;10.65;68.63;102113.16;4951186;28;102107;-49
2022/01/08 00:21:40;;;;;;;28.75;20.50;;;;;;;10.65;68.34;102105.00;4956142;28;104214;-49
2022/01/08 00:24:07;;;;;;;30.77;20.95;;;;;;;10.65;68.73;102115.91;4935551;28;102122;-49
2022/01/08 00:26:33;;;;;;;26.10;19.58;;;;;;;10.65;68.42;102120.50;4936706;28;102320;-47
2022/01/08 00:29:00;;;;;;;27.75;19.70;;;;;;;10.63;69.07;102115.28;4935380;28;102921;-49
2022/01/08 00:31:27;;;;;;;27.92;19.50;;;;;;;10.64;68.34;102114.25;4936375;28;104959;-47
2022/01/08 00:33:54;;;;;;;31.33;19.90;;;;;;;10.64;68.95;102114.25;4933282;28;102217;-48
2022/01/08 00:36:21;;;;;;;26.60;19.38;;;;;;;10.63;68.60;102115.28;4934986;28;102135;-48
2022/01/08 00:38:48;;;;;;;28.23;19.60;;;;;;;10.63;68.74;102120.72;4938521;28;102651;-49
2022/01/08 00:41:14;;;;;;;27.83;20.15;;;;;;;10.63;68.72;102111.75;4934429;28;104298;-48
2022/01/08 00:43:40;;;;;;;29.33;20.40;;;;;;;10.63;68.94;102112.56;4935065;28;102511;-49
2022/01/08 00:46:07;;;;;;;29.20;19.83;;;;;;;10.62;68.57;102116.38;4944179;28;102069;-46
2022/01/08 00:48:34;;;;;;;26.60;20.30;;;;;;;10.62;68.54;102107.38;4956099;28;102741;-48
2022/01/08 00:51:02;;;;;;;29.20;20.65;;;;;;;10.62;68.96;102105.47;4937054;28;103663;-49
2022/01/08 00:53:28;;;;;;;27.35;19.13;;;;;;;10.62;68.53;102102.75;4956316;28;102578;-48
2022/01/08 00:55:54;;;;;;;24.95;18.42;;;;;;;10.62;68.46;102102.75;4951998;28;102323;-48
2022/01/08 00:58:21;;;;;;;26.67;19.08;;;;;;;10.61;68.84;102100.28;4938090;28;102956;-48
2022/01/08 01:00:47;;;;;;;26.55;19.27;;;;;;;10.61;68.60;102106.56;4934775;28;103964;-47
2022/01/08 01:03:13;;;;;;;28.58;19.25;;;;;;;10.61;68.51;102101.09;4937044;28;102667;-48
2022/01/08 01:05:40;;;;;;;26.65;19.33;;;;;;;10.62;68.91;102104.66;4935813;28;102037;-48
2022/01/08 01:08:08;;;;;;;26.65;18.80;;;;;;;10.61;68.49;102108.44;4936555;28;102257;-48
2022/01/08 01:10:34;;;;;;;24.95;19.23;;;;;;;10.60;68.67;102102.16;4928328;28;102791;-48
2022/01/08 01:13:00;;;;;;;25.83;18.77;;;;;;;10.59;68.55;102098.59;4936766;28;102361;-47
2022/01/08 01:15:27;;;;;;;24.75;19.50;;;;;;;10.60;68.60;102096.69;4936994;28;103762;-47
2022/01/08 01:17:53;;;;;;;22.73;17.65;;;;;;;10.59;68.25;102090.44;4943696;28;102177;-48
2022/01/08 01:20:21;;;;;;;22.25;17.75;;;;;;;10.59;68.67;102095.88;4934245;28;103900;-47
2022/01/08 01:23:04;;;;;;;22.77;17.10;;;;;;;10.59;68.25;102089.63;4935861;28;102131;-48
2022/01/08 01:25:39;;;;;;;23.98;17.55;;;;;;;10.59;68.51;102078.72;4937232;28;102200;-48
2022/01/08 01:28:22;;;;;;;23.70;17.50;;;;;;;10.58;69.04;102077.91;4941994;28;102330;-48
2022/01/08 01:47:03;;;;;;;24.27;18.58;;;;;;;10.56;68.22;102058.25;4932819;28;102185;-48
2022/01/08 01:49:32;;;;;;;23.13;17.13;;;;;;;10.57;68.57;102042.75;4936056;28;102440;-49
2022/01/08 01:51:59;;;;;;;21.17;16.53;;;;;;;10.55;68.20;102050.31;4930376;28;103705;-48
2022/01/08 01:54:26;;;;;;;23.42;17.23;;;;;;;10.55;68.89;102055.78;4926992;28;103254;-48
2022/01/08 01:56:57;;;;;;;23.60;16.35;;;;;;;10.55;68.53;102056.59;4933927;28;103567;-49
2022/01/08 01:59:24;;;;;;;23.98;17.30;;;;;;;10.55;68.85;102050.31;4934270;28;102207;-47
2022/01/08 02:01:50;;;;;;;20.73;16.42;;;;;;;10.55;68.44;102051.16;4944296;28;103892;-46
2022/01/08 02:04:16;;;;;;;19.83;16.15;;;;;;;10.53;68.65;102050.56;4925526;28;102195;-49
2022/01/08 02:06:43;;;;;;;21.48;17.33;;;;;;;10.53;68.55;102038.84;4933965;28;101970;-48
2022/01/08 02:09:10;;;;;;;21.83;16.80;;;;;;;10.54;68.54;102048.69;4931219;28;102363;-48
2022/01/08 02:11:56;;;;;;;21.33;15.90;;;;;;;10.54;68.52;102043.22;4929146;28;103834;-49
2022/01/08 02:14:22;;;;;;;21.25;15.68;;;;;;;10.54;68.50;102043.22;4935121;28;102175;-47
2022/01/08 02:16:49;;;;;;;21.35;16.45;;;;;;;10.53;68.29;102036.09;4934110;28;102281;-47
2022/01/08 02:19:15;;;;;;;21.70;16.67;;;;;;;10.53;68.42;102042.41;4935830;28;102676;-48
2022/01/08 02:21:47;;;;;;;19.60;15.70;;;;;;;10.53;68.11;102038.84;4925791;28;103930;-48
2022/01/08 02:24:13;;;;;;;21.02;16.00;;;;;;;10.52;68.57;102034.47;4940193;28;101972;-46
2022/01/08 02:26:40;;;;;;;19.73;15.02;;;;;;;10.51;68.56;102030.91;4938142;28;102262;-48
2022/01/08 02:29:10;;;;;;;20.65;15.80;;;;;;;10.52;68.80;102031.75;4942289;28;103036;-46
2022/01/08 02:31:36;;;;;;;21.75;16.00;;;;;;;10.52;68.16;102031.75;4942791;28;104848;-48
2022/01/08 02:34:05;;;;;;;19.70;15.27;;;;;;;10.51;68.76;102032.81;4943441;28;103634;-47
2022/01/08 02:36:32;;;;;;;21.02;15.40;;;;;;;10.52;68.29;102020.84;4938797;28;102436;-47
2022/01/08 02:39:00;;;;;;;20.40;16.27;;;;;;;10.52;68.02;102023.56;4940170;28;102304;-49
2022/01/08 02:41:27;;;;;;;18.45;14.95;;;;;;;10.51;68.32;102025.47;4945553;28;103902;-49
2022/01/08 02:43:54;;;;;;;20.33;16.17;;;;;;;10.51;68.32;102021.94;4934902;28;102322;-47
2022/01/08 02:46:20;;;;;;;20.83;16.40;;;;;;;10.51;68.43;102021.94;4954049;28;102169;-47
2022/01/08 02:48:47;;;;;;;17.27;14.98;;;;;;;10.51;68.34;102016.50;4948905;28;102296;-47
2022/01/08 02:51:13;;;;;;;19.77;14.75;;;;;;;10.51;68.36;102011.03;4955062;28;102983;-49
2022/01/08 02:53:40;;;;;;;21.15;14.60;;;;;;;10.50;67.97;102010.22;4955789;28;102852;-48
2022/01/08 02:56:07;;;;;;;19.88;15.38;;;;;;;10.50;68.51;102010.22;4955029;28;102208;-47
2022/01/08 02:58:34;;;;;;;16.38;14.55;;;;;;;10.49;68.40;102007.72;4952963;28;102440;-48
2022/01/08 03:01:01;;;;;;;18.23;14.30;;;;;;;10.49;68.25;102011.25;4949527;28;103967;-48
2022/01/08 03:03:27;;;;;;;19.88;14.80;;;;;;;10.49;68.35;102010.44;4954749;28;102348;-48
2022/01/08 03:05:54;;;;;;;17.27;14.55;;;;;;;10.47;68.11;102005.25;4958070;28;102637;-48
2022/01/08 03:08:20;;;;;;;19.92;14.20;;;;;;;10.47;68.11;102007.16;4957180;28;103343;-45
2022/01/08 03:10:47;;;;;;;18.40;14.13;;;;;;;10.50;67.91;102015.66;4957946;28;103897;-48
2022/01/08 03:13:14;;;;;;;17.90;14.20;;;;;;;10.48;68.21;102009.63;4958082;28;102207;-49
2022/01/08 03:15:41;;;;;;;16.75;13.85;;;;;;;10.49;68.05;102003.09;4940311;28;102994;-47
2022/01/08 03:18:08;;;;;;;18.05;13.95;;;;;;;10.48;68.39;101996.00;4936055;28;102229;-48
2022/01/08 03:20:43;;;;;;;14.52;12.98;;;;;;;10.48;68.14;102001.44;4935971;28;103962;-49
2022/01/08 03:23:14;;;;;;;17.77;13.80;;;;;;;10.47;68.49;102001.72;4942555;28;102541;-48
2022/01/08 03:25:41;;;;;;;16.50;13.30;;;;;;;10.47;68.31;101996.25;4939203;28;102462;-48
2022/01/08 03:28:08;;;;;;;17.40;13.50;;;;;;;10.47;68.15;101998.97;4944023;28;102593;-48
2022/01/08 03:30:36;;;;;;;14.90;12.85;;;;;;;10.47;68.07;102001.72;4936365;28;103849;-46
2022/01/08 03:33:02;;;;;;;16.10;12.80;;;;;;;10.47;68.22;101996.25;4938891;28;102654;-48
2022/01/08 03:35:29;;;;;;;15.02;12.43;;;;;;;10.46;68.64;101997.34;4938004;28;102773;-49
2022/01/08 03:37:55;;;;;;;14.73;12.13;;;;;;;10.46;68.11;101998.16;4937294;28;102956;-47
2022/01/08 03:40:22;;;;;;;17.45;13.02;;;;;;;10.46;67.84;101992.72;4936370;28;103884;-48
2022/01/08 03:42:48;;;;;;;14.80;11.90;;;;;;;10.46;68.25;101991.91;4940988;28;102590;-48
2022/01/08 03:45:14;;;;;;;14.48;11.93;;;;;;;10.45;68.63;101995.66;4939709;28;102353;-48
2022/01/08 03:50:16;;;;;;;16.60;12.00;;;;;;;10.45;67.80;102003.81;4935440;28;103923;-47
2022/01/08 03:52:44;;;;;;;13.27;11.48;;;;;;;10.45;67.98;101995.66;4942409;28;102561;-48
2022/01/08 03:55:11;;;;;;;13.27;11.50;;;;;;;10.45;68.37;102006.53;4956368;28;103602;-48
2022/01/08 03:57:38;;;;;;;13.85;11.65;;;;;;;10.45;68.65;102009.28;4957412;28;102190;-47
2022/01/08 04:00:05;;;;;;;14.20;11.45;;;;;;;10.43;68.54;102009.53;4953395;28;103872;-49
2022/01/08 04:02:32;;;;;;;14.55;11.30;;;;;;;10.45;68.28;102017.44;4956543;28;103231;-47
2022/01/08 04:05:00;;;;;;;13.05;11.20;;;;;;;10.44;68.13;102015.78;4950741;28;102157;-48
2022/01/08 04:07:26;;;;;;;13.65;11.55;;;;;;;10.43;67.94;102020.41;4938565;28;102386;-47
2022/01/08 04:09:53;;;;;;;12.55;10.82;;;;;;;10.44;68.06;102015.78;4934516;28;103862;-48
2022/01/08 04:12:30;;;;;;;13.90;10.95;;;;;;;10.43;68.11;102014.13;4937918;28;102279;-48
2022/01/08 04:15:06;;;;;;;12.50;10.95;;;;;;;10.43;67.79;102014.97;4937703;28;102135;-47
2022/01/08 04:17:32;;;;;;;13.05;10.80;;;;;;;10.42;67.96;102012.47;4937349;28;102248;-45
2022/01/08 04:20:00;;;;;;;11.48;10.00;;;;;;;10.43;68.18;102008.69;4936386;28;103835;-48
2022/01/08 04:22:27;;;;;;;14.15;11.18;;;;;;;10.42;67.98;102012.47;4936709;28;102555;-47
2022/01/08 04:24:56;;;;;;;13.32;10.88;;;;;;;10.42;68.32;102007.88;4939887;28;102614;-48
2022/01/08 04:27:22;;;;;;;14.25;11.57;;;;;;;10.43;68.26;102008.69;4942145;28;102195;-47
2022/01/08 04:29:48;;;;;;;14.45;11.15;;;;;;;10.42;68.49;102001.56;4965612;28;104150;-48
2022/01/08 04:32:15;;;;;;;14.75;11.82;;;;;;;10.42;68.30;102007.03;4936214;28;102177;-48
2022/01/08 04:34:42;;;;;;;13.75;11.13;;;;;;;10.42;68.28;102012.47;4937006;28;102510;-48
2022/01/08 04:37:10;;;;;;;11.95;10.30;;;;;;;10.42;68.12;102007.03;4938363;28;102449;-47
2022/01/08 04:39:36;;;;;;;13.60;11.40;;;;;;;10.41;68.20;102006.19;4935581;28;103931;-48
2022/01/08 04:42:03;;;;;;;15.23;11.35;;;;;;;10.41;68.16;101999.94;4925190;28;102280;-48
2022/01/08 04:44:31;;;;;;;13.75;10.93;;;;;;;10.41;68.23;102005.38;4936210;28;102292;-48
2022/01/08 04:46:58;;;;;;;14.30;11.05;;;;;;;10.41;67.97;102008.09;4942991;28;102204;-49
2022/01/08 04:49:24;;;;;;;12.90;11.05;;;;;;;10.41;68.20;102010.81;4940388;28;104136;-48
2022/01/08 04:51:53;;;;;;;12.25;10.90;;;;;;;10.41;68.17;102008.09;4938006;28;102100;-49
2022/01/08 04:54:22;;;;;;;13.02;10.77;;;;;;;10.40;68.14;102009.16;4936525;28;102536;-48
2022/01/08 04:56:49;;;;;;;14.57;11.70;;;;;;;10.40;68.41;102009.16;4936213;28;102207;-48
2022/01/08 04:59:16;;;;;;;12.00;10.75;;;;;;;10.41;68.40;102017.09;4935113;28;104070;-48
2022/01/08 05:01:43;;;;;;;13.35;10.82;;;;;;;10.41;67.82;102010.81;4934702;28;102253;-48
2022/01/08 05:04:10;;;;;;;11.70;10.30;;;;;;;10.40;67.50;102010.00;4936920;28;102025;-46
2022/01/08 05:06:36;;;;;;;12.38;10.77;;;;;;;10.40;67.86;102003.72;4935832;28;102341;-48
2022/01/08 05:09:03;;;;;;;12.20;10.25;;;;;;;10.41;68.02;102013.53;4935040;28;103888;-47
2022/01/08 05:11:31;;;;;;;12.35;10.30;;;;;;;10.41;67.81;102005.38;4936391;28;102491;-46
2022/01/08 05:13:58;;;;;;;12.18;10.13;;;;;;;10.39;68.18;102002.91;4936720;28;102390;-48
2022/01/08 05:16:27;;;;;;;12.65;10.40;;;;;;;10.41;67.80;102008.09;4935254;28;102336;-48
2022/01/08 05:18:54;;;;;;;11.35;9.95;;;;;;;10.40;67.61;102010.00;4933243;28;103881;-49
2022/01/08 05:21:25;;;;;;;12.25;10.43;;;;;;;10.40;67.95;102012.72;4935422;28;101989;-48
2022/01/08 05:23:54;;;;;;;13.07;10.07;;;;;;;10.40;67.99;102012.72;4954694;28;102335;-50
2022/01/08 05:26:21;;;;;;;;;;;;;;;10.41;68.03;102016.25;4954725;28;102546;-51
2022/01/08 05:28:49;;;;;;;12.93;10.25;;;;;;;10.40;68.03;102015.44;4955446;28;103806;-50
2022/01/08 05:31:17;;;;;;;12.10;10.70;;;;;;;10.40;67.76;102011.88;4934682;28;102136;-49
2022/01/08 05:33:44;;;;;;;11.80;10.65;;;;;;;10.39;68.23;102012.97;4952931;28;102464;-47
2022/01/08 05:36:10;;;;;;;12.05;9.52;;;;;;;10.40;68.14;102020.06;4929371;28;102684;-48
2022/01/08 05:38:37;;;;;;;11.15;10.00;;;;;;;10.40;67.77;102022.78;4952519;28;103920;-47
2022/01/08 05:41:03;;;;;;;10.38;9.20;;;;;;;10.39;67.98;102012.97;4940649;28;102041;-48
2022/01/08 05:43:30;;;;;;;13.15;10.35;;;;;;;10.40;68.40;102011.88;4952029;28;102138;-47
2022/01/08 05:45:58;;;;;;;13.05;9.95;;;;;;;10.40;67.63;102011.88;4924664;28;102203;-47
2022/01/08 05:48:26;;;;;;;11.47;10.23;;;;;;;10.40;67.64;102011.88;4935136;28;103923;-49
2022/01/08 05:50:53;;;;;;;10.18;9.02;;;;;;;10.40;68.13;102003.72;4936639;28;102629;-48
2022/01/08 05:53:20;;;;;;;10.68;9.23;;;;;;;10.40;67.73;101996.38;4953497;28;102186;-48
2022/01/08 05:55:49;;;;;;;10.05;8.98;;;;;;;10.41;68.17;102005.38;4935965;28;102193;-48
2022/01/08 05:58:15;;;;;;;11.20;9.00;;;;;;;10.40;67.85;101998.28;4932890;28;103868;-48
2022/01/08 06:00:42;;;;;;;10.23;8.45;;;;;;;10.41;68.28;101994.50;4933901;28;102438;-49
2022/01/08 06:03:10;;;;;;;9.85;8.85;;;;;;;10.41;68.10;101991.75;4931810;28;105395;-47
2022/01/08 06:05:36;;;;;;;9.65;8.60;;;;;;;10.40;68.46;101992.84;4932107;28;102150;-49
2022/01/08 06:08:03;;;;;;;9.90;8.82;;;;;;;10.41;67.84;101986.31;4939225;28;103912;-48
2022/01/08 06:10:30;;;;;;;9.73;8.68;;;;;;;10.40;68.18;101981.97;4950112;28;102754;-49
2022/01/08 06:12:59;;;;;;;10.17;8.73;;;;;;;10.40;68.08;101981.97;4942757;28;102481;-48
2022/01/08 06:15:26;;;;;;;10.82;8.52;;;;;;;10.39;68.12;101986.56;4950289;28;103707;-49
2022/01/08 06:17:52;;;;;;;9.15;8.05;;;;;;;10.39;67.62;101992.03;4931704;28;105335;-48
2022/01/08 06:20:21;;;;;;;9.85;7.82;;;;;;;10.39;67.77;101980.31;4934350;28;102032;-49
2022/01/08 06:22:47;;;;;;;9.93;7.78;;;;;;;10.40;67.91;101987.41;4958942;28;102462;-48
2022/01/08 06:25:13;;;;;;;9.95;7.68;;;;;;;10.39;68.23;101986.56;4933449;28;102235;-47
2022/01/08 06:27:40;;;;;;;8.90;8.00;;;;;;;10.38;68.01;101974.00;4937725;28;103853;-47
2022/01/08 06:30:07;;;;;;;9.95;8.40;;;;;;;10.40;67.53;101987.41;4931973;28;102205;-47
2022/01/08 06:32:34;;;;;;;10.05;7.60;;;;;;;10.39;67.90;101980.31;4934028;28;104865;-48
2022/01/08 06:35:01;;;;;;;9.70;8.32;;;;;;;10.40;67.37;101976.50;4949215;28;102378;-47
2022/01/08 06:37:28;;;;;;;10.10;7.63;;;;;;;10.40;68.29;101979.22;4943681;28;103708;-47
2022/01/08 06:39:55;;;;;;;10.60;7.80;;;;;;;10.39;68.24;101977.59;4941783;28;102447;-47
2022/01/08 06:42:22;;;;;;;9.77;7.70;;;;;;;10.39;68.08;101972.16;4945366;28;102226;-49
2022/01/08 06:44:48;;;;;;;9.75;7.47;;;;;;;10.39;68.40;101974.88;4957904;28;102207;-49
2022/01/08 06:47:15;;;;;;;9.35;7.70;;;;;;;10.39;67.54;101974.88;4934204;28;103889;-48
2022/01/08 06:49:41;;;;;;;8.88;7.05;;;;;;;10.39;68.16;101970.25;4936588;28;102292;-48
2022/01/08 06:52:08;;;;;;;8.32;7.18;;;;;;;10.39;67.85;101969.44;4935224;28;102468;-47
2022/01/08 06:54:37;;;;;;;7.70;6.38;;;;;;;10.38;68.16;101973.19;4945451;28;102614;-46
2022/01/08 06:57:04;;;;;;;9.10;6.63;;;;;;;10.38;67.83;101976.72;4945090;28;104305;-50
2022/01/08 06:59:30;;;;;;;7.53;6.70;;;;;;;10.38;67.94;101973.19;4928245;28;102646;-49
2022/01/08 07:01:56;;;;;;;9.38;7.22;;;;;;;10.39;67.87;101974.88;4938079;28;102378;-48
2022/01/08 07:04:23;;;;;;;8.52;6.78;;;;;;;10.39;68.24;101980.31;4941937;28;102340;-45
2022/01/08 07:06:49;;;;;;;8.75;7.00;;;;;;;10.38;67.93;101978.63;4939927;28;104279;-49
2022/01/08 07:09:17;;;;;;;9.52;6.65;;;;;;;10.37;67.85;101972.38;4945444;28;102074;-48
2022/01/08 07:11:44;;;;;;;8.95;6.65;;;;;;;10.38;67.50;101973.19;4940453;28;102243;-48
2022/01/08 07:14:11;;;;;;;7.70;6.57;;;;;;;10.38;67.63;101973.19;4940192;28;102203;-48
2022/01/08 07:16:38;;;;;;;6.95;6.05;;;;;;;10.39;67.72;101974.88;4934553;28;103880;-49
2022/01/08 07:19:05;;;;;;;7.95;6.18;;;;;;;10.37;68.23;101977.81;4938417;28;102835;-47
2022/01/08 07:21:32;;;;;;;7.68;6.45;;;;;;;10.37;68.19;101966.94;4937226;28;103382;-46
2022/01/08 07:23:58;;;;;;;7.55;5.88;;;;;;;10.38;67.62;101965.03;4938382;28;102111;-49
2022/01/08 07:26:24;;;;;;;7.25;5.70;;;;;;;10.37;67.56;101966.09;4940312;28;103690;-48
2022/01/08 07:28:52;;;;;;;6.57;5.55;;;;;;;10.38;67.60;101959.59;4937923;28;102411;-47
2022/01/08 07:31:19;;;;;;;6.93;6.00;;;;;;;10.37;67.61;101969.66;4941808;28;104725;-49
2022/01/08 07:33:49;;;;;;;6.38;5.22;;;;;;;10.36;68.04;101961.72;4953352;28;102391;-48
2022/01/08 07:36:16;;;;;;;9.30;6.00;;;;;;;10.37;68.15;101966.09;4957578;28;104274;-48
2022/01/08 07:38:43;;;;;;;5.97;4.93;;;;;;;10.36;68.17;101961.72;4952025;28;102288;-48
2022/01/08 07:41:10;;;;;;;6.25;5.13;;;;;;;10.36;67.59;101953.56;4946648;28;102306;-47
2022/01/08 07:43:36;;;;;;;6.07;5.13;;;;;;;10.36;67.77;101964.47;4939677;28;102190;-48
2022/01/08 07:46:04;;;;;;;5.40;4.50;;;;;;;10.34;68.07;101970.94;4942377;28;102968;-49
2022/01/08 07:48:31;;;;;;;5.95;4.75;;;;;;;10.34;68.13;101962.78;4943580;28;102760;-49
2022/01/08 07:50:58;;;;;;;4.90;4.20;;;;;;;10.34;68.07;101968.22;4959079;28;102151;-48
2022/01/08 07:53:25;;;;;;;5.72;4.60;;;;;;;10.32;67.57;101964.94;4960232;28;102157;-48
2022/01/08 07:55:51;;;;;;;5.20;3.78;;;;;;;10.32;68.16;101958.66;4956317;28;103883;-47
2022/01/08 07:58:20;;;;;;;4.53;3.92;;;;;;;10.32;68.21;101958.66;4956147;28;102271;-47
2022/01/08 08:00:46;;;;;;;;;;;;;;;10.31;68.18;101967.88;4941215;28;102189;-47
2022/01/08 08:03:14;;;;;;;4.57;3.58;;;;;;;10.31;67.80;101963.28;4952130;28;102642;-46
2022/01/08 08:05:40;;;;;;;4.47;3.63;;;;;;;10.29;68.23;101951.81;4955379;28;103951;-48
2022/01/08 08:08:07;;;;;;;5.68;3.95;;;;;;;10.30;67.88;101961.59;4938291;28;102633;-48
2022/01/08 08:10:34;;;;;;;5.15;3.83;;;;;;;10.29;67.81;101965.41;4939039;28;102560;-48
2022/01/08 08:13:00;;;;;;;5.53;3.78;;;;;;;10.29;68.16;101959.97;4936171;28;102310;-48
2022/01/08 08:15:28;;;;;;;4.83;3.43;;;;;;;10.28;68.16;101963.75;4946060;28;104777;-48
2022/01/08 08:17:55;;;;;;;3.72;3.42;;;;;;;10.28;67.88;101955.59;4933961;28;102454;-47
2022/01/08 08:20:22;;;;;;;3.75;3.35;;;;;;;10.28;67.68;101952.88;4967855;28;102447;-48
2022/01/08 08:22:49;;;;;;;3.67;3.33;;;;;;;10.27;67.48;101951.19;4957178;28;102132;-48
2022/01/08 08:25:15;;;;;;;3.92;3.28;;;;;;;10.27;67.58;101945.75;4955491;28;103920;-49
2022/01/08 08:27:43;;;;;;;6.60;3.30;;;;;;;10.27;67.86;101945.75;4956757;28;102191;-48
2022/01/08 08:30:10;;;;;;;4.25;3.10;;;;;;;10.27;68.07;101940.31;4955302;28;102507;-46
2022/01/08 08:32:37;;;;;;;5.03;3.13;;;;;;;10.26;68.11;101935.94;4955573;28;102405;-47
2022/01/08 08:35:05;;;;;;;3.42;3.10;;;;;;;10.27;67.96;101929.44;4954056;28;103376;-48
2022/01/08 08:37:34;;;;;;;4.15;3.05;;;;;;;10.27;67.69;101924.00;4938780;28;102253;-46
2022/01/08 08:40:00;;;;;;;4.25;3.15;;;;;;;10.26;68.22;101933.22;4953482;28;102241;-48
2022/01/08 08:42:27;;;;;;;3.47;2.90;;;;;;;10.27;67.68;101929.44;4940867;28;102487;-48
2022/01/08 08:44:53;;;;;;;4.53;3.40;;;;;;;10.26;68.19;101921.53;4936917;28;104876;-48
2022/01/08 08:47:19;;;;;;;4.80;3.22;;;;;;;10.26;67.29;101914.19;4933839;28;103389;-47
2022/01/08 08:49:46;;;;;;;4.00;3.00;;;;;;;10.27;68.03;101917.72;4934828;28;102186;-48
2022/01/08 08:52:12;;;;;;;5.65;3.25;;;;;;;10.26;68.07;101916.91;4955914;28;103464;-48
2022/01/08 08:54:41;;;;;;;3.33;2.90;;;;;;;10.32;67.79;101915.13;4951357;28;102954;-52
2022/01/08 08:57:07;;;;;;;;;;;;;;;10.30;67.22;101901.75;4952538;28;102460;-48
2022/01/08 08:59:35;;;;;;;4.82;3.20;;;;;;;10.27;67.89;101899.50;4946620;28;102240;-49
2022/01/08 09:02:01;;;;;;;4.25;3.10;;;;;;;10.27;67.70;101896.78;4935884;28;103063;-48
2022/01/08 09:04:28;;;;;;;3.30;2.88;;;;;;;10.28;67.30;101886.75;4934759;28;103973;-48
2022/01/08 09:06:57;;;;;;;4.18;2.90;;;;;;;10.26;67.45;101886.97;4936381;28;102401;-49
2022/01/08 09:09:23;;;;;;;4.15;3.10;;;;;;;10.26;68.03;101878.81;4940457;28;102562;-48
2022/01/08 09:11:51;;;;;;;3.72;3.05;;;;;;;10.26;67.86;101878.81;4949698;28;102252;-48
2022/01/08 09:14:17;;;;;;;5.50;3.42;;;;;;;10.27;67.68;101868.75;4936090;28;104036;-48
2022/01/08 09:16:48;;;;;;;3.83;3.03;;;;;;;10.26;68.09;101867.94;4937535;28;102729;-48
2022/01/08 09:19:14;;;;;;;3.83;2.80;;;;;;;10.26;67.89;101862.50;4941061;28;102124;-46
2022/01/08 09:21:41;;;;;;;3.70;2.53;;;;;;;10.26;67.60;101851.59;4954190;28;102398;-50
2022/01/08 09:24:07;;;;;;;6.28;3.22;;;;;;;10.25;67.65;101855.41;4950449;28;104017;-48
2022/01/08 09:26:33;;;;;;;3.97;3.03;;;;;;;10.24;67.93;101853.72;4953746;28;102629;-47
2022/01/08 09:29:01;;;;;;;4.10;3.00;;;;;;;10.25;67.38;101860.84;4953622;28;102287;-48
2022/01/08 09:31:28;;;;;;;3.92;2.95;;;;;;;10.25;67.32;101858.13;4955211;28;102147;-48
2022/01/08 09:33:54;;;;;;;4.57;3.25;;;;;;;10.24;67.46;101842.84;4951130;28;104113;-47
2022/01/08 09:36:21;;;;;;;3.38;3.08;;;;;;;10.25;67.77;101849.09;4946495;28;102365;-48
2022/01/08 09:38:47;;;;;;;4.60;3.00;;;;;;;10.25;67.30;101844.53;4934152;28;102201;-48
2022/01/08 09:41:14;;;;;;;3.63;3.17;;;;;;;10.24;68.04;101842.00;4930234;28;102579;-48
2022/01/08 09:43:40;;;;;;;3.97;3.30;;;;;;;10.24;67.20;101831.09;4933784;28;103037;-47
2022/01/08 09:46:08;;;;;;;4.15;3.22;;;;;;;10.24;67.90;101831.09;4944621;28;102666;-46
2022/01/08 09:48:34;;;;;;;4.07;3.50;;;;;;;10.23;67.69;101829.47;4956137;28;102630;-48
2022/01/08 09:51:02;;;;;;;3.97;3.17;;;;;;;10.23;67.96;101824.84;4956880;28;102154;-49
2022/01/08 09:53:29;;;;;;;4.53;3.42;;;;;;;10.23;67.62;101826.75;4939652;28;104360;-47
2022/01/08 09:55:56;;;;;;;4.13;3.63;;;;;;;10.22;67.50;101820.47;4935222;28;102467;-47
2022/01/08 09:58:22;;;;;;;4.53;3.60;;;;;;;10.21;68.06;101807.97;4934850;28;102567;-48
2022/01/08 10:00:49;;;;;;;4.20;3.40;;;;;;;10.20;68.11;101806.28;4925222;28;102447;-49
2022/01/08 10:03:20;;;;;;;4.28;3.50;;;;;;;10.21;67.62;101796.25;4933802;28;103842;-48
2022/01/08 10:05:49;;;;;;;4.30;3.85;;;;;;;10.20;67.93;101792.69;4936959;28;102203;-49
2022/01/08 10:08:21;;;;;;;3.97;3.58;;;;;;;10.21;67.74;101793.53;4936919;28;102206;-47
2022/01/08 10:10:55;;;;;;;7.63;4.00;;;;;;;10.20;67.63;101789.13;4937247;28;102210;-47
2022/01/08 10:13:24;;;;;;;5.93;4.50;;;;;;;10.20;68.07;101780.97;4932601;28;104057;-49
2022/01/08 10:18:39;;;;;;;5.22;4.35;;;;;;;10.19;67.33;101774.72;4951420;28;103890;-46
2022/01/08 10:21:20;;;;;;;5.20;4.38;;;;;;;10.19;68.08;101769.28;4955721;28;102368;-48
2022/01/08 10:23:50;;;;;;;6.60;5.13;;;;;;;10.19;67.42;101772.00;4954241;28;108888;-50
2022/01/08 10:26:19;;;;;;;6.18;4.68;;;;;;;10.18;67.55;101761.38;4953232;28;102232;-48
2022/01/08 10:28:47;;;;;;;5.82;3.67;;;;;;;10.18;67.59;101755.94;4949687;28;102304;-48
2022/01/08 10:31:17;;;;;;;3.42;3.05;;;;;;;10.19;67.54;101755.66;4956281;28;102851;-48
2022/01/08 10:33:48;;;;;;;6.40;4.70;;;;;;;10.18;67.76;101756.75;4952548;28;104648;-47
2022/01/08 10:36:20;;;;;;;6.03;4.78;;;;;;;10.17;67.81;101755.09;4953622;28;102308;-46
2022/01/08 10:38:50;;;;;;;5.15;4.57;;;;;;;10.18;67.93;101759.47;4960333;28;102168;-47
2022/01/08 10:41:17;;;;;;;6.68;5.03;;;;;;;10.17;67.82;101760.53;4951988;28;102222;-48
2022/01/08 10:43:45;;;;;;;6.82;4.88;;;;;;;10.17;67.87;101760.53;4947129;28;103944;-46
2022/01/08 10:46:13;;;;;;;4.68;4.13;;;;;;;10.17;67.26;101749.66;4937491;28;102262;-48
2022/01/08 10:48:43;;;;;;;5.97;4.78;;;;;;;10.17;67.65;101749.66;4932653;28;102315;-46
2022/01/08 10:51:33;;;;;;;5.63;4.70;;;;;;;10.17;67.69;101744.22;4934536;28;102573;-50
2022/01/08 10:54:09;;;;;;;7.05;4.93;;;;;;;10.17;67.65;101740.66;4934761;28;103837;-50
2022/01/08 10:56:39;;;;;;;7.38;5.00;;;;;;;10.17;67.96;101738.78;4935485;28;102480;-49
2022/01/08 10:59:12;;;;;;;5.63;4.53;;;;;;;10.17;67.47;101724.34;4934686;28;103668;-49
2022/01/08 11:01:41;;;;;;;7.20;5.32;;;;;;;10.15;67.70;101724.59;4936397;28;103397;-48
2022/01/08 11:04:09;;;;;;;6.40;5.18;;;;;;;10.15;67.25;101719.16;4935314;28;103735;-48
2022/01/08 11:06:48;;;;;;;7.38;5.40;;;;;;;10.14;67.66;101714.78;4935256;28;102168;-48
2022/01/08 11:09:15;;;;;;;5.97;5.20;;;;;;;10.14;67.48;101706.63;4952019;28;102183;-46
2022/01/08 11:11:43;;;;;;;6.70;5.00;;;;;;;10.13;67.59;101704.94;4939042;28;102575;-48
2022/01/08 11:14:23;;;;;;;6.80;4.68;;;;;;;10.12;67.61;101706.03;4934497;28;104015;-48
2022/01/08 11:16:53;;;;;;;6.53;5.07;;;;;;;10.15;67.31;101702.00;4934207;28;103680;-47
2022/01/08 11:19:20;;;;;;;7.85;5.72;;;;;;;10.13;67.05;101694.06;4965605;28;102173;-49
2022/01/08 11:21:49;;;;;;;6.05;5.05;;;;;;;10.11;67.10;101697.06;4953998;28;102174;-46
2022/01/08 11:24:18;;;;;;;5.65;5.00;;;;;;;10.12;67.87;101687.00;4935776;28;103862;-48
2022/01/08 11:26:47;;;;;;;7.65;5.30;;;;;;;10.11;67.51;101688.88;4938902;28;102769;-49
2022/01/08 11:29:19;;;;;;;7.97;5.63;;;;;;;10.11;67.42;101691.59;4936661;28;102374;-48
2022/01/08 11:31:48;;;;;;;7.47;5.45;;;;;;;10.11;67.72;101690.78;4938293;28;102163;-48
2022/01/08 11:34:15;;;;;;;;;;;;;;;10.11;67.12;101690.78;4937478;28;103966;-46